createdAt,value
2023-04-27T00:02:26.879Z,100017.66
2023-04-27T00:05:30.485Z,100010.37
2023-04-27T00:08:34.729Z,100014.34
2023-04-27T00:11:38.246Z,100010.88
2023-04-27T00:14:41.764Z,100008.19
2023-04-27T00:17:44.962Z,100016.41
2023-04-27T00:20:48.020Z,100011.06
2023-04-27T00:23:51.750Z,100006.19
2023-04-27T00:26:54.900Z,100003.19
2023-04-27T00:29:58.093Z,100005.88
2023-04-27T00:33:02.971Z,100003.19
2023-04-27T00:36:06.852Z,99995.13
2023-04-27T00:39:09.846Z,99995.78
2023-04-27T00:42:15.515Z,99998.78
2023-04-27T00:45:18.309Z,99999.41
2023-04-27T00:48:21.551Z,99999.88
2023-04-27T00:51:30.300Z,100000.50
2023-04-27T00:54:33.734Z,100000.03
2023-04-27T00:57:36.675Z,99996.75
2023-04-27T01:00:40.447Z,100002.56
2023-04-27T01:03:45.178Z,100004.31
2023-04-27T01:06:50.696Z,100009.97
2023-04-27T01:09:53.694Z,100010.16
2023-04-27T01:12:58.333Z,100011.56
2023-04-27T01:16:01.357Z,100005.88
2023-04-27T01:19:05.150Z,100007.75
2023-04-27T01:22:08.279Z,100013.25
2023-04-27T01:25:12.766Z,100016.59
2023-04-27T01:28:15.722Z,100013.59
2023-04-27T01:31:18.933Z,100025.59
2023-04-27T01:34:23.125Z,100025.88
2023-04-27T01:37:27.293Z,100028.56
2023-04-27T01:40:30.177Z,100030.75
2023-04-27T01:43:33.470Z,100027.78
2023-04-27T01:46:37.400Z,100038.78
2023-04-27T01:49:40.661Z,100029.69
2023-04-27T01:52:44.695Z,100029.81
2023-04-27T01:55:47.923Z,100031.25
2023-04-27T01:58:53.399Z,100033.28
2023-04-27T02:01:57.304Z,100029.97
2023-04-27T02:05:00.609Z,100030.31
2023-04-27T02:08:03.784Z,100037.72
2023-04-27T02:11:07.142Z,100041.81
2023-04-27T02:14:10.098Z,100046.03
2023-04-27T02:17:14.485Z,100042.09
2023-04-27T02:20:17.401Z,100041.94
2023-04-27T02:23:20.855Z,100051.09
2023-04-27T02:26:29.320Z,100051.56
2023-04-27T02:29:32.818Z,100049.03
2023-04-27T02:32:36.465Z,100050.59
2023-04-27T02:35:40.762Z,100049.47
2023-04-27T02:38:43.719Z,100059.53
2023-04-27T02:41:46.956Z,100057.03
2023-04-27T02:44:51.461Z,100066.44
2023-04-27T02:47:55.214Z,100064.06
2023-04-27T02:50:58.246Z,100069.12
2023-04-27T02:54:02.223Z,100073.16
2023-04-27T02:57:07.070Z,100075.34
2023-04-27T03:00:11.176Z,100073.41
2023-04-27T03:03:14.308Z,100063.03
2023-04-27T03:06:17.689Z,100066.78
2023-04-27T03:09:20.761Z,100059.06
2023-04-27T03:12:24.070Z,100067.56
2023-04-27T03:15:26.960Z,100073.69
2023-04-27T03:18:30.172Z,100068.03
2023-04-27T03:21:33.290Z,100080.63
2023-04-27T03:24:36.492Z,100079.66
2023-04-27T03:27:39.482Z,100082.38
2023-04-27T03:30:42.941Z,100081.84
2023-04-27T03:33:46.053Z,100079.00
2023-04-27T03:36:51.357Z,100090.00
2023-04-27T03:39:55.264Z,100099.13
2023-04-27T03:42:59.233Z,100095.97
2023-04-27T03:46:02.448Z,100097.53
2023-04-27T03:49:05.871Z,100098.97
2023-04-27T03:52:08.854Z,100099.44
2023-04-27T03:55:13.658Z,100111.91
2023-04-27T03:58:18.065Z,100106.09
2023-04-27T04:01:22.708Z,100111.34
2023-04-27T04:04:26.637Z,100106.47
2023-04-27T04:07:30.011Z,100111.87
2023-04-27T04:10:33.382Z,100116.16
2023-04-27T04:13:36.773Z,100120.44
2023-04-27T04:16:40.220Z,100122.31
2023-04-27T04:19:43.424Z,100127.41
2023-04-27T04:22:47.888Z,100119.88
2023-04-27T04:25:51.202Z,100125.56
2023-04-27T04:28:56.084Z,100133.47
2023-04-27T04:32:00.190Z,100128.59
2023-04-27T04:35:07.889Z,100132.50
2023-04-27T04:38:11.551Z,100131.75
2023-04-27T04:41:14.999Z,100138.87
2023-04-27T04:44:18.000Z,100138.53
2023-04-27T04:47:21.682Z,100138.09
2023-04-27T04:50:24.664Z,100137.81
2023-04-27T04:53:27.862Z,100143.03
2023-04-27T04:56:31.605Z,100144.78
2023-04-27T04:59:36.542Z,100138.31
2023-04-27T05:02:41.154Z,100142.75
2023-04-27T05:05:44.500Z,100141.50
2023-04-27T05:08:47.498Z,100137.69
2023-04-27T05:11:50.739Z,100140.53
2023-04-27T05:14:53.702Z,100141.97
2023-04-27T05:17:58.176Z,100139.88
2023-04-27T05:21:01.397Z,100153.16
2023-04-27T05:24:05.365Z,100156.81
2023-04-27T05:27:08.378Z,100156.94
2023-04-27T05:30:12.450Z,100158.50
2023-04-27T05:33:15.665Z,100165.94
2023-04-27T05:36:18.885Z,100166.13
2023-04-27T05:39:21.775Z,100166.56
2023-04-27T05:42:25.004Z,100162.81
2023-04-27T05:45:28.168Z,100165.31
2023-04-27T05:48:31.471Z,100173.84
2023-04-27T05:51:34.645Z,100181.41
2023-04-27T05:54:37.839Z,100183.75
2023-04-27T05:57:41.542Z,100186.19
2023-04-27T06:00:46.543Z,100184.38
2023-04-27T06:03:51.175Z,100182.56
2023-04-27T06:06:56.997Z,100188.16
2023-04-27T06:10:00.432Z,100199.25
2023-04-27T06:13:04.141Z,100198.09
2023-04-27T06:16:07.430Z,100199.25
2023-04-27T06:19:10.333Z,100200.88
2023-04-27T06:22:13.520Z,100208.62
2023-04-27T06:25:16.582Z,100209.28
2023-04-27T06:28:19.850Z,100209.91
2023-04-27T06:31:23.128Z,100209.56
2023-04-27T06:34:27.186Z,100204.62
2023-04-27T06:37:30.258Z,100209.25
2023-04-27T06:40:33.633Z,100206.69
2023-04-27T06:43:36.652Z,100210.16
2023-04-27T06:46:39.904Z,100212.00
2023-04-27T06:49:42.827Z,100213.78
2023-04-27T06:52:46.112Z,100220.72
2023-04-27T06:55:51.208Z,100225.81
2023-04-27T06:58:55.738Z,100219.56
2023-04-27T07:01:59.033Z,100225.19
2023-04-27T07:05:03.213Z,100230.84
2023-04-27T07:08:08.530Z,100229.75
2023-04-27T07:11:13.620Z,100234.59
2023-04-27T07:14:16.523Z,100236.47
2023-04-27T07:17:19.991Z,100228.31
2023-04-27T07:20:24.853Z,100236.94
2023-04-27T07:23:28.251Z,100231.56
2023-04-27T07:26:32.164Z,100226.50
2023-04-27T07:29:35.470Z,100226.75
2023-04-27T07:32:40.697Z,100238.88
2023-04-27T07:35:43.892Z,100233.69
2023-04-27T07:38:46.947Z,100232.03
2023-04-27T07:41:50.534Z,100231.62
2023-04-27T07:44:54.349Z,100217.88
2023-04-27T07:48:00.225Z,100228.56
2023-04-27T07:51:03.315Z,100235.31
2023-04-27T07:54:06.721Z,100225.97
2023-04-27T07:57:11.932Z,100229.41
2023-04-27T08:00:17.172Z,100230.78
2023-04-27T08:03:20.434Z,100232.03
2023-04-27T08:06:24.872Z,100229.16
2023-04-27T08:09:28.201Z,100230.66
2023-04-27T08:12:31.247Z,100233.94
2023-04-27T08:15:34.100Z,100224.84
2023-04-27T08:18:36.970Z,100222.12
2023-04-27T08:21:40.200Z,100220.53
2023-04-27T08:24:43.146Z,100219.41
2023-04-27T08:27:46.362Z,100222.88
2023-04-27T08:30:49.358Z,100227.63
2023-04-27T08:33:53.657Z,100228.22
2023-04-27T08:36:57.189Z,100232.97
2023-04-27T08:40:00.512Z,100223.75
2023-04-27T08:43:05.069Z,100222.72
2023-04-27T08:46:08.172Z,100221.69
2023-04-27T08:49:13.693Z,100216.37
2023-04-27T08:52:18.722Z,100224.59
2023-04-27T08:55:21.831Z,100226.56
2023-04-27T08:58:37.286Z,100228.66
2023-04-27T09:01:43.897Z,100229.53
2023-04-27T09:04:47.306Z,100219.56
2023-04-27T09:08:05.882Z,100216.87
2023-04-27T09:11:09.193Z,100216.69
2023-04-27T09:14:23.394Z,100210.19
2023-04-27T09:17:27.991Z,100213.59
2023-04-27T09:20:30.921Z,100199.59
2023-04-27T09:23:35.802Z,100214.25
2023-04-27T09:26:38.870Z,100198.84
2023-04-27T09:29:41.742Z,100203.13
2023-04-27T09:32:58.942Z,100200.03
2023-04-27T09:36:04.457Z,100186.59
2023-04-27T09:39:07.223Z,100205.72
2023-04-27T09:42:12.462Z,100195.06
2023-04-27T09:45:15.544Z,100193.28
2023-04-27T09:48:18.998Z,100196.22
2023-04-27T09:51:22.003Z,100193.91
2023-04-27T09:54:28.411Z,100189.47
2023-04-27T09:57:58.893Z,100195.47
2023-04-27T10:01:07.427Z,100189.03
2023-04-27T10:04:35.990Z,100191.00
2023-04-27T10:07:41.196Z,100180.09
2023-04-27T10:10:50.527Z,100187.22
2023-04-27T10:13:55.194Z,100197.03
2023-04-27T10:16:59.476Z,100186.28
2023-04-27T10:20:10.215Z,100192.91
2023-04-27T10:23:26.139Z,100191.78
2023-04-27T10:26:29.031Z,100193.72
2023-04-27T10:29:43.035Z,100195.84
2023-04-27T10:32:54.320Z,100197.03
2023-04-27T10:36:00.679Z,100189.59
2023-04-27T10:39:14.994Z,100182.84
2023-04-27T10:42:28.862Z,100194.06
2023-04-27T10:45:34.432Z,100183.09
2023-04-27T10:48:42.590Z,100167.31
2023-04-27T10:51:47.124Z,100179.06
2023-04-27T10:54:50.712Z,100175.97
2023-04-27T10:57:55.556Z,100176.78
2023-04-27T11:00:58.822Z,100178.34
2023-04-27T11:04:02.457Z,100169.37
2023-04-27T11:07:06.354Z,100157.69
2023-04-27T11:10:09.950Z,100172.66
2023-04-27T11:13:15.906Z,100171.75
